sensor_id;sensor_type;location;lat;lon;timestamp;P1;durP1;ratioP1;P2;durP2;ratioP2
55368;SDS011;41247;49.736;8.752;2022-10-16T00:00:30;4.47;;;1.10;;
55368;SDS011;41247;49.736;8.752;2022-10-16T00:04:11;1.98;;;0.90;;
55368;SDS011;41247;49.736;8.752;2022-10-16T00:07:52;1.20;;;0.82;;
55368;SDS011;41247;49.736;8.752;2022-10-16T00:11:33;5.07;;;1.20;;
55368;SDS011;41247;49.736;8.752;2022-10-16T00:15:17;6.60;;;1.50;;
55368;SDS011;41247;49.736;8.752;2022-10-16T00:18:58;2.28;;;1.13;;
55368;SDS011;41247;49.736;8.752;2022-10-16T00:22:38;1.88;;;1.17;;
55368;SDS011;41247;49.736;8.752;2022-10-16T00:26:19;4.38;;;1.00;;
55368;SDS011;41247;49.736;8.752;2022-10-16T00:30:00;1.00;;;0.80;;
55368;SDS011;41247;49.736;8.752;2022-10-16T00:33:41;2.35;;;0.70;;
55368;SDS011;41247;49.736;8.752;2022-10-16T00:37:22;5.30;;;1.00;;
55368;SDS011;41247;49.736;8.752;2022-10-16T00:41:03;2.40;;;0.90;;
55368;SDS011;41247;49.736;8.752;2022-10-16T00:44:49;1.30;;;0.98;;
55368;SDS011;41247;49.736;8.752;2022-10-16T00:48:36;1.88;;;0.90;;
55368;SDS011;41247;49.736;8.752;2022-10-16T00:52:17;1.00;;;0.90;;
55368;SDS011;41247;49.736;8.752;2022-10-16T00:55:58;2.05;;;1.10;;
55368;SDS011;41247;49.736;8.752;2022-10-16T00:59:39;3.75;;;1.40;;
55368;SDS011;41247;49.736;8.752;2022-10-16T01:03:26;2.53;;;1.00;;
55368;SDS011;41247;49.736;8.752;2022-10-16T01:07:10;1.40;;;1.30;;
55368;SDS011;41247;49.736;8.752;2022-10-16T01:15:25;4.97;;;1.48;;
55368;SDS011;41247;49.736;8.752;2022-10-16T01:19:17;2.95;;;1.63;;
55368;SDS011;41247;49.736;8.752;2022-10-16T01:27:29;3.88;;;1.98;;
55368;SDS011;41247;49.736;8.752;2022-10-16T01:31:16;3.25;;;2.45;;
55368;SDS011;41247;49.736;8.752;2022-10-16T01:35:11;5.35;;;2.63;;
55368;SDS011;41247;49.736;8.752;2022-10-16T01:38:59;7.28;;;3.60;;
55368;SDS011;41247;49.736;8.752;2022-10-16T01:42:43;10.57;;;5.47;;
55368;SDS011;41247;49.736;8.752;2022-10-16T01:46:29;15.13;;;8.90;;
55368;SDS011;41247;49.736;8.752;2022-10-16T01:50:11;23.00;;;12.85;;
55368;SDS011;41247;49.736;8.752;2022-10-16T01:53:54;30.80;;;17.38;;
55368;SDS011;41247;49.736;8.752;2022-10-16T01:57:39;33.90;;;20.50;;
55368;SDS011;41247;49.736;8.752;2022-10-16T02:01:24;40.65;;;23.70;;
55368;SDS011;41247;49.736;8.752;2022-10-16T02:08:57;41.85;;;26.65;;
55368;SDS011;41247;49.736;8.752;2022-10-16T02:12:40;44.05;;;27.83;;
55368;SDS011;41247;49.736;8.752;2022-10-16T02:20:22;39.08;;;23.13;;
55368;SDS011;41247;49.736;8.752;2022-10-16T02:24:28;34.17;;;21.52;;
55368;SDS011;41247;49.736;8.752;2022-10-16T02:28:19;30.17;;;19.88;;
55368;SDS011;41247;49.736;8.752;2022-10-16T02:32:04;29.90;;;20.63;;
55368;SDS011;41247;49.736;8.752;2022-10-16T02:35:47;35.15;;;20.63;;
55368;SDS011;41247;49.736;8.752;2022-10-16T02:39:29;34.03;;;20.95;;
55368;SDS011;41247;49.736;8.752;2022-10-16T02:43:10;33.00;;;20.35;;
55368;SDS011;41247;49.736;8.752;2022-10-16T02:46:52;24.80;;;17.20;;
55368;SDS011;41247;49.736;8.752;2022-10-16T02:50:33;28.55;;;17.60;;
55368;SDS011;41247;49.736;8.752;2022-10-16T03:04:02;8.40;;;6.40;;
55368;SDS011;41247;49.736;8.752;2022-10-16T03:08:43;10.95;;;5.05;;
55368;SDS011;41247;49.736;8.752;2022-10-16T03:12:23;5.35;;;3.42;;
55368;SDS011;41247;49.736;8.752;2022-10-16T03:16:04;10.45;;;3.20;;
55368;SDS011;41247;49.736;8.752;2022-10-16T03:19:57;6.40;;;2.47;;
55368;SDS011;41247;49.736;8.752;2022-10-16T03:41:01;2.95;;;1.80;;
55368;SDS011;41247;49.736;8.752;2022-10-16T03:44:41;2.70;;;1.88;;
55368;SDS011;41247;49.736;8.752;2022-10-16T03:48:28;2.80;;;2.30;;
55368;SDS011;41247;49.736;8.752;2022-10-16T03:52:09;3.90;;;2.00;;
55368;SDS011;41247;49.736;8.752;2022-10-16T03:55:50;5.68;;;2.28;;
55368;SDS011;41247;49.736;8.752;2022-10-16T03:59:31;6.95;;;2.25;;
55368;SDS011;41247;49.736;8.752;2022-10-16T04:03:11;6.47;;;2.30;;
55368;SDS011;41247;49.736;8.752;2022-10-16T04:06:52;4.63;;;2.60;;
55368;SDS011;41247;49.736;8.752;2022-10-16T04:10:32;5.70;;;3.10;;
55368;SDS011;41247;49.736;8.752;2022-10-16T04:14:13;4.18;;;2.97;;
55368;SDS011;41247;49.736;8.752;2022-10-16T04:17:54;4.88;;;3.30;;
55368;SDS011;41247;49.736;8.752;2022-10-16T04:21:34;7.10;;;3.15;;
55368;SDS011;41247;49.736;8.752;2022-10-16T04:25:15;7.45;;;2.90;;
55368;SDS011;41247;49.736;8.752;2022-10-16T04:28:56;7.45;;;3.22;;
55368;SDS011;41247;49.736;8.752;2022-10-16T04:32:36;6.50;;;2.92;;
55368;SDS011;41247;49.736;8.752;2022-10-16T04:36:17;4.00;;;2.80;;
55368;SDS011;41247;49.736;8.752;2022-10-16T04:39:57;8.50;;;3.40;;
55368;SDS011;41247;49.736;8.752;2022-10-16T04:43:38;6.07;;;3.20;;
55368;SDS011;41247;49.736;8.752;2022-10-16T04:47:18;7.10;;;3.13;;
55368;SDS011;41247;49.736;8.752;2022-10-16T04:50:59;4.30;;;3.30;;
55368;SDS011;41247;49.736;8.752;2022-10-16T04:54:42;7.60;;;3.72;;
55368;SDS011;41247;49.736;8.752;2022-10-16T04:58:23;6.05;;;3.53;;
55368;SDS011;41247;49.736;8.752;2022-10-16T05:02:03;5.50;;;3.35;;
55368;SDS011;41247;49.736;8.752;2022-10-16T05:05:45;3.70;;;3.28;;
55368;SDS011;41247;49.736;8.752;2022-10-16T05:09:26;5.57;;;3.28;;
55368;SDS011;41247;49.736;8.752;2022-10-16T05:13:06;5.35;;;3.60;;
55368;SDS011;41247;49.736;8.752;2022-10-16T05:16:47;7.35;;;3.83;;
55368;SDS011;41247;49.736;8.752;2022-10-16T05:20:28;13.30;;;3.60;;
55368;SDS011;41247;49.736;8.752;2022-10-16T05:24:09;8.45;;;3.72;;
55368;SDS011;41247;49.736;8.752;2022-10-16T05:37:35;5.35;;;2.90;;
55368;SDS011;41247;49.736;8.752;2022-10-16T05:47:21;4.78;;;2.28;;
55368;SDS011;41247;49.736;8.752;2022-10-16T05:55:39;7.47;;;2.53;;
55368;SDS011;41247;49.736;8.752;2022-10-16T05:59:29;4.55;;;2.25;;
55368;SDS011;41247;49.736;8.752;2022-10-16T06:04:00;6.30;;;2.47;;
55368;SDS011;41247;49.736;8.752;2022-10-16T06:20:06;8.00;;;2.97;;
55368;SDS011;41247;49.736;8.752;2022-10-16T06:23:48;8.95;;;3.17;;
55368;SDS011;41247;49.736;8.752;2022-10-16T06:27:46;6.18;;;3.33;;
55368;SDS011;41247;49.736;8.752;2022-10-16T06:31:27;3.15;;;2.80;;
55368;SDS011;41247;49.736;8.752;2022-10-16T06:39:20;7.03;;;2.92;;
55368;SDS011;41247;49.736;8.752;2022-10-16T06:43:55;6.18;;;2.63;;
55368;SDS011;41247;49.736;8.752;2022-10-16T06:47:35;4.88;;;2.50;;
55368;SDS011;41247;49.736;8.752;2022-10-16T06:51:20;6.40;;;2.65;;
55368;SDS011;41247;49.736;8.752;2022-10-16T06:55:02;7.00;;;2.67;;
55368;SDS011;41247;49.736;8.752;2022-10-16T06:58:43;8.35;;;2.47;;
55368;SDS011;41247;49.736;8.752;2022-10-16T07:02:24;5.88;;;2.33;;
55368;SDS011;41247;49.736;8.752;2022-10-16T07:06:05;6.80;;;2.45;;
55368;SDS011;41247;49.736;8.752;2022-10-16T07:09:48;5.28;;;2.17;;
55368;SDS011;41247;49.736;8.752;2022-10-16T07:13:28;5.57;;;2.25;;
55368;SDS011;41247;49.736;8.752;2022-10-16T07:17:09;6.70;;;1.90;;
55368;SDS011;41247;49.736;8.752;2022-10-16T07:20:50;4.82;;;2.03;;
55368;SDS011;41247;49.736;8.752;2022-10-16T07:24:30;3.97;;;2.00;;
55368;SDS011;41247;49.736;8.752;2022-10-16T07:28:11;2.50;;;1.85;;
55368;SDS011;41247;49.736;8.752;2022-10-16T07:31:51;5.78;;;1.65;;
55368;SDS011;41247;49.736;8.752;2022-10-16T07:35:32;5.20;;;1.60;;
55368;SDS011;41247;49.736;8.752;2022-10-16T07:39:12;5.88;;;1.27;;
55368;SDS011;41247;49.736;8.752;2022-10-16T07:42:53;4.63;;;1.70;;
55368;SDS011;41247;49.736;8.752;2022-10-16T07:46:34;6.20;;;1.63;;
55368;SDS011;41247;49.736;8.752;2022-10-16T07:50:15;2.97;;;1.50;;
55368;SDS011;41247;49.736;8.752;2022-10-16T07:53:56;6.10;;;1.55;;
55368;SDS011;41247;49.736;8.752;2022-10-16T07:57:36;8.57;;;1.75;;
55368;SDS011;41247;49.736;8.752;2022-10-16T08:01:17;8.60;;;1.80;;
55368;SDS011;41247;49.736;8.752;2022-10-16T08:04:59;5.57;;;1.80;;
55368;SDS011;41247;49.736;8.752;2022-10-16T08:08:39;5.82;;;1.45;;
55368;SDS011;41247;49.736;8.752;2022-10-16T08:12:20;5.03;;;1.50;;
55368;SDS011;41247;49.736;8.752;2022-10-16T08:16:01;8.40;;;1.80;;
55368;SDS011;41247;49.736;8.752;2022-10-16T08:19:46;5.35;;;1.85;;
55368;SDS011;41247;49.736;8.752;2022-10-16T08:23:27;3.63;;;2.00;;
55368;SDS011;41247;49.736;8.752;2022-10-16T08:27:08;4.88;;;1.70;;
55368;SDS011;41247;49.736;8.752;2022-10-16T08:30:48;7.25;;;2.00;;
55368;SDS011;41247;49.736;8.752;2022-10-16T08:34:29;7.97;;;2.00;;
55368;SDS011;41247;49.736;8.752;2022-10-16T08:38:10;7.60;;;2.03;;
55368;SDS011;41247;49.736;8.752;2022-10-16T08:42:11;5.00;;;2.03;;
55368;SDS011;41247;49.736;8.752;2022-10-16T08:46:44;5.63;;;2.40;;
55368;SDS011;41247;49.736;8.752;2022-10-16T08:51:00;6.53;;;2.08;;
55368;SDS011;41247;49.736;8.752;2022-10-16T08:54:46;11.88;;;2.70;;
55368;SDS011;41247;49.736;8.752;2022-10-16T08:58:35;6.00;;;2.88;;
55368;SDS011;41247;49.736;8.752;2022-10-16T09:02:22;60.35;;;4.93;;
55368;SDS011;41247;49.736;8.752;2022-10-16T09:10:13;7.43;;;3.03;;
55368;SDS011;41247;49.736;8.752;2022-10-16T09:15:00;2.40;;;1.40;;
55368;SDS011;41247;49.736;8.752;2022-10-16T09:18:48;3.03;;;1.35;;
55368;SDS011;41247;49.736;8.752;2022-10-16T09:22:52;1.75;;;1.65;;
55368;SDS011;41247;49.736;8.752;2022-10-16T09:26:44;5.57;;;2.13;;
55368;SDS011;41247;49.736;8.752;2022-10-16T09:30:29;6.07;;;1.98;;
55368;SDS011;41247;49.736;8.752;2022-10-16T09:38:23;6.93;;;2.40;;
55368;SDS011;41247;49.736;8.752;2022-10-16T09:42:13;4.32;;;2.35;;
55368;SDS011;41247;49.736;8.752;2022-10-16T09:46:42;5.85;;;2.75;;
55368;SDS011;41247;49.736;8.752;2022-10-16T09:50:24;4.03;;;2.80;;
55368;SDS011;41247;49.736;8.752;2022-10-16T09:57:51;5.00;;;2.72;;
55368;SDS011;41247;49.736;8.752;2022-10-16T10:01:38;3.80;;;1.95;;
55368;SDS011;41247;49.736;8.752;2022-10-16T10:05:21;5.35;;;1.50;;
55368;SDS011;41247;49.736;8.752;2022-10-16T10:13:00;4.40;;;1.70;;
55368;SDS011;41247;49.736;8.752;2022-10-16T10:16:41;6.65;;;1.65;;
55368;SDS011;41247;49.736;8.752;2022-10-16T10:20:28;2.97;;;2.03;;
55368;SDS011;41247;49.736;8.752;2022-10-16T10:24:12;7.88;;;2.88;;
55368;SDS011;41247;49.736;8.752;2022-10-16T10:41:13;2.70;;;1.95;;
55368;SDS011;41247;49.736;8.752;2022-10-16T10:45:12;4.45;;;1.52;;
55368;SDS011;41247;49.736;8.752;2022-10-16T10:49:16;4.60;;;2.20;;
55368;SDS011;41247;49.736;8.752;2022-10-16T11:02:00;3.95;;;1.83;;
55368;SDS011;41247;49.736;8.752;2022-10-16T11:06:04;5.25;;;1.85;;
55368;SDS011;41247;49.736;8.752;2022-10-16T11:09:54;5.18;;;1.88;;
55368;SDS011;41247;49.736;8.752;2022-10-16T11:13:47;6.90;;;2.10;;
55368;SDS011;41247;49.736;8.752;2022-10-16T11:17:44;2.95;;;1.90;;
55368;SDS011;41247;49.736;8.752;2022-10-16T11:21:31;5.47;;;1.80;;
55368;SDS011;41247;49.736;8.752;2022-10-16T11:25:28;6.75;;;2.08;;
55368;SDS011;41247;49.736;8.752;2022-10-16T11:29:13;3.33;;;2.05;;
55368;SDS011;41247;49.736;8.752;2022-10-16T11:33:47;5.82;;;2.20;;
55368;SDS011;41247;49.736;8.752;2022-10-16T11:37:17;9.15;;;1.58;;
55368;SDS011;41247;49.736;8.752;2022-10-16T11:41:10;4.70;;;1.60;;
55368;SDS011;41247;49.736;8.752;2022-10-16T11:45:36;2.25;;;1.58;;
55368;SDS011;41247;49.736;8.752;2022-10-16T11:49:30;4.05;;;1.55;;
55368;SDS011;41247;49.736;8.752;2022-10-16T11:57:32;2.42;;;1.63;;
55368;SDS011;41247;49.736;8.752;2022-10-16T12:01:31;6.95;;;1.58;;
55368;SDS011;41247;49.736;8.752;2022-10-16T12:09:40;2.97;;;1.25;;
55368;SDS011;41247;49.736;8.752;2022-10-16T12:20:59;6.38;;;1.73;;
55368;SDS011;41247;49.736;8.752;2022-10-16T12:24:43;3.45;;;1.70;;
55368;SDS011;41247;49.736;8.752;2022-10-16T12:32:24;11.63;;;2.08;;
55368;SDS011;41247;49.736;8.752;2022-10-16T12:36:38;5.20;;;1.65;;
55368;SDS011;41247;49.736;8.752;2022-10-16T12:44:20;5.22;;;1.83;;
55368;SDS011;41247;49.736;8.752;2022-10-16T12:48:17;3.65;;;1.70;;
55368;SDS011;41247;49.736;8.752;2022-10-16T12:52:01;3.72;;;1.70;;
55368;SDS011;41247;49.736;8.752;2022-10-16T12:55:44;2.47;;;1.70;;
55368;SDS011;41247;49.736;8.752;2022-10-16T13:00:13;2.15;;;1.50;;
55368;SDS011;41247;49.736;8.752;2022-10-16T13:04:40;2.58;;;1.65;;
55368;SDS011;41247;49.736;8.752;2022-10-16T13:21:56;3.65;;;1.70;;
55368;SDS011;41247;49.736;8.752;2022-10-16T13:26:13;5.22;;;2.00;;
55368;SDS011;41247;49.736;8.752;2022-10-16T13:30:40;3.63;;;1.77;;
55368;SDS011;41247;49.736;8.752;2022-10-16T13:34:43;5.80;;;1.92;;
55368;SDS011;41247;49.736;8.752;2022-10-16T13:38:26;6.63;;;1.80;;
55368;SDS011;41247;49.736;8.752;2022-10-16T13:42:10;6.68;;;1.98;;
55368;SDS011;41247;49.736;8.752;2022-10-16T13:46:01;11.60;;;2.60;;
55368;SDS011;41247;49.736;8.752;2022-10-16T13:49:45;16.65;;;2.00;;
55368;SDS011;41247;49.736;8.752;2022-10-16T13:53:26;7.00;;;1.98;;
55368;SDS011;41247;49.736;8.752;2022-10-16T13:57:07;16.05;;;2.50;;
55368;SDS011;41247;49.736;8.752;2022-10-16T14:00:55;24.70;;;2.60;;
55368;SDS011;41247;49.736;8.752;2022-10-16T14:04:44;16.00;;;2.58;;
55368;SDS011;41247;49.736;8.752;2022-10-16T14:08:27;5.57;;;2.53;;
55368;SDS011;41247;49.736;8.752;2022-10-16T14:12:10;10.32;;;2.50;;
55368;SDS011;41247;49.736;8.752;2022-10-16T14:15:52;8.73;;;2.20;;
55368;SDS011;41247;49.736;8.752;2022-10-16T14:19:32;17.02;;;2.28;;
55368;SDS011;41247;49.736;8.752;2022-10-16T14:23:23;15.38;;;2.47;;
55368;SDS011;41247;49.736;8.752;2022-10-16T14:27:28;7.35;;;2.97;;
55368;SDS011;41247;49.736;8.752;2022-10-16T14:34:59;8.05;;;2.30;;
55368;SDS011;41247;49.736;8.752;2022-10-16T14:38:41;5.95;;;2.15;;
55368;SDS011;41247;49.736;8.752;2022-10-16T14:42:29;9.10;;;2.33;;
55368;SDS011;41247;49.736;8.752;2022-10-16T14:46:13;8.27;;;2.10;;
55368;SDS011;41247;49.736;8.752;2022-10-16T14:49:57;12.48;;;2.17;;
55368;SDS011;41247;49.736;8.752;2022-10-16T14:53:38;6.07;;;2.20;;
55368;SDS011;41247;49.736;8.752;2022-10-16T14:57:19;13.32;;;2.50;;
55368;SDS011;41247;49.736;8.752;2022-10-16T15:01:04;11.82;;;2.08;;
55368;SDS011;41247;49.736;8.752;2022-10-16T15:04:44;10.27;;;2.50;;
55368;SDS011;41247;49.736;8.752;2022-10-16T15:08:25;9.15;;;2.42;;
55368;SDS011;41247;49.736;8.752;2022-10-16T15:12:06;6.80;;;2.00;;
55368;SDS011;41247;49.736;8.752;2022-10-16T15:15:47;4.60;;;2.00;;
55368;SDS011;41247;49.736;8.752;2022-10-16T15:19:27;14.73;;;2.65;;
55368;SDS011;41247;49.736;8.752;2022-10-16T15:23:18;6.93;;;2.35;;
55368;SDS011;41247;49.736;8.752;2022-10-16T15:27:03;4.38;;;2.10;;
55368;SDS011;41247;49.736;8.752;2022-10-16T15:30:44;3.67;;;1.80;;
55368;SDS011;41247;49.736;8.752;2022-10-16T15:34:25;7.65;;;1.80;;
55368;SDS011;41247;49.736;8.752;2022-10-16T15:38:06;3.42;;;1.92;;
55368;SDS011;41247;49.736;8.752;2022-10-16T15:41:53;3.53;;;1.67;;
55368;SDS011;41247;49.736;8.752;2022-10-16T15:45:34;7.70;;;1.80;;
55368;SDS011;41247;49.736;8.752;2022-10-16T15:49:15;6.70;;;1.63;;
55368;SDS011;41247;49.736;8.752;2022-10-16T15:52:55;6.55;;;1.88;;
55368;SDS011;41247;49.736;8.752;2022-10-16T15:56:36;7.18;;;1.98;;
55368;SDS011;41247;49.736;8.752;2022-10-16T16:00:18;8.85;;;2.08;;
55368;SDS011;41247;49.736;8.752;2022-10-16T16:03:59;4.37;;;1.77;;
55368;SDS011;41247;49.736;8.752;2022-10-16T16:07:40;2.85;;;1.95;;
55368;SDS011;41247;49.736;8.752;2022-10-16T16:11:21;7.18;;;2.00;;
55368;SDS011;41247;49.736;8.752;2022-10-16T16:15:01;5.30;;;1.80;;
55368;SDS011;41247;49.736;8.752;2022-10-16T16:18:46;9.13;;;2.30;;
55368;SDS011;41247;49.736;8.752;2022-10-16T16:22:27;5.88;;;2.03;;
55368;SDS011;41247;49.736;8.752;2022-10-16T16:26:12;5.20;;;1.95;;
55368;SDS011;41247;49.736;8.752;2022-10-16T16:30:07;6.00;;;2.25;;
55368;SDS011;41247;49.736;8.752;2022-10-16T16:33:51;7.03;;;2.08;;
55368;SDS011;41247;49.736;8.752;2022-10-16T16:37:31;3.92;;;2.30;;
55368;SDS011;41247;49.736;8.752;2022-10-16T16:45:03;8.88;;;2.42;;
55368;SDS011;41247;49.736;8.752;2022-10-16T16:48:45;3.50;;;1.95;;
55368;SDS011;41247;49.736;8.752;2022-10-16T16:52:28;11.00;;;2.40;;
55368;SDS011;41247;49.736;8.752;2022-10-16T16:56:09;5.43;;;2.00;;
55368;SDS011;41247;49.736;8.752;2022-10-16T16:59:50;6.45;;;2.30;;
55368;SDS011;41247;49.736;8.752;2022-10-16T17:03:32;7.13;;;2.10;;
55368;SDS011;41247;49.736;8.752;2022-10-16T17:07:14;7.53;;;1.90;;
55368;SDS011;41247;49.736;8.752;2022-10-16T17:10:54;8.55;;;2.20;;
55368;SDS011;41247;49.736;8.752;2022-10-16T17:14:36;7.32;;;2.20;;
55368;SDS011;41247;49.736;8.752;2022-10-16T17:18:17;6.30;;;2.15;;
55368;SDS011;41247;49.736;8.752;2022-10-16T17:21:57;5.60;;;2.10;;
55368;SDS011;41247;49.736;8.752;2022-10-16T17:25:38;6.97;;;1.95;;
55368;SDS011;41247;49.736;8.752;2022-10-16T17:29:20;8.30;;;2.00;;
55368;SDS011;41247;49.736;8.752;2022-10-16T17:33:01;6.30;;;2.00;;
55368;SDS011;41247;49.736;8.752;2022-10-16T17:36:41;5.82;;;1.98;;
55368;SDS011;41247;49.736;8.752;2022-10-16T17:40:22;3.85;;;1.90;;
55368;SDS011;41247;49.736;8.752;2022-10-16T17:44:05;4.88;;;2.08;;
55368;SDS011;41247;49.736;8.752;2022-10-16T17:47:46;4.97;;;2.15;;
55368;SDS011;41247;49.736;8.752;2022-10-16T17:51:28;9.52;;;2.22;;
55368;SDS011;41247;49.736;8.752;2022-10-16T17:55:10;4.20;;;2.00;;
55368;SDS011;41247;49.736;8.752;2022-10-16T17:58:52;1.90;;;1.52;;
55368;SDS011;41247;49.736;8.752;2022-10-16T18:02:35;5.95;;;2.05;;
55368;SDS011;41247;49.736;8.752;2022-10-16T18:06:15;7.35;;;2.40;;
55368;SDS011;41247;49.736;8.752;2022-10-16T18:13:41;6.07;;;2.08;;
55368;SDS011;41247;49.736;8.752;2022-10-16T18:17:21;2.90;;;1.80;;
55368;SDS011;41247;49.736;8.752;2022-10-16T18:21:02;7.60;;;2.10;;
55368;SDS011;41247;49.736;8.752;2022-10-16T18:24:48;7.90;;;2.28;;
55368;SDS011;41247;49.736;8.752;2022-10-16T18:28:28;5.47;;;2.10;;
55368;SDS011;41247;49.736;8.752;2022-10-16T18:32:09;6.00;;;2.22;;
55368;SDS011;41247;49.736;8.752;2022-10-16T18:35:50;6.88;;;2.00;;
55368;SDS011;41247;49.736;8.752;2022-10-16T18:39:31;6.45;;;2.13;;
55368;SDS011;41247;49.736;8.752;2022-10-16T18:43:12;3.60;;;2.10;;
55368;SDS011;41247;49.736;8.752;2022-10-16T18:46:52;4.88;;;2.50;;
55368;SDS011;41247;49.736;8.752;2022-10-16T18:50:33;5.60;;;2.40;;
55368;SDS011;41247;49.736;8.752;2022-10-16T18:54:14;4.35;;;2.15;;
55368;SDS011;41247;49.736;8.752;2022-10-16T18:57:54;8.40;;;2.35;;
55368;SDS011;41247;49.736;8.752;2022-10-16T19:01:36;7.75;;;2.65;;
55368;SDS011;41247;49.736;8.752;2022-10-16T19:05:16;10.38;;;2.50;;
55368;SDS011;41247;49.736;8.752;2022-10-16T19:08:57;8.93;;;2.58;;
55368;SDS011;41247;49.736;8.752;2022-10-16T19:12:38;11.35;;;2.70;;
55368;SDS011;41247;49.736;8.752;2022-10-16T19:16:22;7.95;;;2.67;;
55368;SDS011;41247;49.736;8.752;2022-10-16T19:20:11;10.73;;;2.50;;
55368;SDS011;41247;49.736;8.752;2022-10-16T19:23:53;8.43;;;1.70;;
55368;SDS011;41247;49.736;8.752;2022-10-16T19:27:37;4.15;;;1.73;;
55368;SDS011;41247;49.736;8.752;2022-10-16T19:31:21;8.05;;;1.75;;
55368;SDS011;41247;49.736;8.752;2022-10-16T19:35:02;6.13;;;1.60;;
55368;SDS011;41247;49.736;8.752;2022-10-16T19:38:44;1.65;;;1.40;;
55368;SDS011;41247;49.736;8.752;2022-10-16T19:42:26;5.57;;;1.60;;
55368;SDS011;41247;49.736;8.752;2022-10-16T19:46:13;4.07;;;1.50;;
55368;SDS011;41247;49.736;8.752;2022-10-16T19:50:00;6.03;;;1.58;;
55368;SDS011;41247;49.736;8.752;2022-10-16T19:53:40;2.83;;;1.40;;
55368;SDS011;41247;49.736;8.752;2022-10-16T19:57:21;6.50;;;1.88;;
55368;SDS011;41247;49.736;8.752;2022-10-16T20:04:45;6.20;;;1.60;;
55368;SDS011;41247;49.736;8.752;2022-10-16T20:08:26;2.35;;;1.50;;
55368;SDS011;41247;49.736;8.752;2022-10-16T20:12:07;5.07;;;1.55;;
55368;SDS011;41247;49.736;8.752;2022-10-16T20:15:47;1.55;;;1.20;;
55368;SDS011;41247;49.736;8.752;2022-10-16T20:19:28;5.70;;;1.50;;
55368;SDS011;41247;49.736;8.752;2022-10-16T20:23:10;5.00;;;1.30;;
55368;SDS011;41247;49.736;8.752;2022-10-16T20:26:51;7.25;;;1.40;;
55368;SDS011;41247;49.736;8.752;2022-10-16T20:30:32;2.65;;;1.38;;
55368;SDS011;41247;49.736;8.752;2022-10-16T20:34:14;3.78;;;1.70;;
55368;SDS011;41247;49.736;8.752;2022-10-16T20:37:55;3.53;;;1.40;;
55368;SDS011;41247;49.736;8.752;2022-10-16T20:41:35;7.40;;;1.40;;
55368;SDS011;41247;49.736;8.752;2022-10-16T20:45:16;10.20;;;1.35;;
55368;SDS011;41247;49.736;8.752;2022-10-16T20:48:57;3.97;;;1.13;;
55368;SDS011;41247;49.736;8.752;2022-10-16T20:52:38;4.30;;;1.40;;
55368;SDS011;41247;49.736;8.752;2022-10-16T20:56:18;5.68;;;1.48;;
55368;SDS011;41247;49.736;8.752;2022-10-16T20:59:59;4.90;;;1.65;;
55368;SDS011;41247;49.736;8.752;2022-10-16T21:03:40;10.18;;;1.73;;
55368;SDS011;41247;49.736;8.752;2022-10-16T21:07:21;4.32;;;1.63;;
55368;SDS011;41247;49.736;8.752;2022-10-16T21:11:13;1.95;;;1.20;;
55368;SDS011;41247;49.736;8.752;2022-10-16T21:15:03;5.78;;;1.40;;
55368;SDS011;41247;49.736;8.752;2022-10-16T21:18:44;4.55;;;1.27;;
55368;SDS011;41247;49.736;8.752;2022-10-16T21:22:28;3.78;;;1.30;;
55368;SDS011;41247;49.736;8.752;2022-10-16T21:26:10;9.50;;;1.38;;
55368;SDS011;41247;49.736;8.752;2022-10-16T21:29:53;3.67;;;1.73;;
55368;SDS011;41247;49.736;8.752;2022-10-16T21:33:34;2.65;;;1.13;;
55368;SDS011;41247;49.736;8.752;2022-10-16T21:37:15;6.75;;;1.35;;
55368;SDS011;41247;49.736;8.752;2022-10-16T21:40:55;3.55;;;1.30;;
55368;SDS011;41247;49.736;8.752;2022-10-16T21:44:36;3.05;;;1.40;;
55368;SDS011;41247;49.736;8.752;2022-10-16T21:48:16;7.20;;;1.42;;
55368;SDS011;41247;49.736;8.752;2022-10-16T21:51:57;9.48;;;1.63;;
55368;SDS011;41247;49.736;8.752;2022-10-16T21:55:38;3.50;;;1.40;;
55368;SDS011;41247;49.736;8.752;2022-10-16T21:59:18;4.95;;;1.67;;
55368;SDS011;41247;49.736;8.752;2022-10-16T22:02:59;3.05;;;1.60;;
55368;SDS011;41247;49.736;8.752;2022-10-16T22:06:40;5.53;;;1.42;;
55368;SDS011;41247;49.736;8.752;2022-10-16T22:10:21;1.88;;;1.10;;
55368;SDS011;41247;49.736;8.752;2022-10-16T22:14:10;4.65;;;1.48;;
55368;SDS011;41247;49.736;8.752;2022-10-16T22:17:58;7.68;;;1.40;;
55368;SDS011;41247;49.736;8.752;2022-10-16T22:21:39;3.85;;;1.38;;
55368;SDS011;41247;49.736;8.752;2022-10-16T22:25:21;4.87;;;1.50;;
55368;SDS011;41247;49.736;8.752;2022-10-16T22:29:02;6.13;;;1.40;;
55368;SDS011;41247;49.736;8.752;2022-10-16T22:32:43;11.63;;;1.90;;
55368;SDS011;41247;49.736;8.752;2022-10-16T22:36:24;3.20;;;1.60;;
55368;SDS011;41247;49.736;8.752;2022-10-16T22:40:05;3.15;;;1.85;;
55368;SDS011;41247;49.736;8.752;2022-10-16T22:43:47;2.60;;;1.65;;
55368;SDS011;41247;49.736;8.752;2022-10-16T22:47:28;9.10;;;1.70;;
55368;SDS011;41247;49.736;8.752;2022-10-16T22:51:09;2.55;;;1.42;;
55368;SDS011;41247;49.736;8.752;2022-10-16T22:54:51;5.75;;;1.67;;
55368;SDS011;41247;49.736;8.752;2022-10-16T22:58:32;4.50;;;1.50;;
55368;SDS011;41247;49.736;8.752;2022-10-16T23:02:12;6.05;;;1.70;;
55368;SDS011;41247;49.736;8.752;2022-10-16T23:05:53;5.20;;;1.40;;
55368;SDS011;41247;49.736;8.752;2022-10-16T23:09:33;3.95;;;1.80;;
55368;SDS011;41247;49.736;8.752;2022-10-16T23:13:14;2.45;;;1.60;;
55368;SDS011;41247;49.736;8.752;2022-10-16T23:16:55;3.88;;;1.42;;
55368;SDS011;41247;49.736;8.752;2022-10-16T23:20:39;4.53;;;1.70;;
55368;SDS011;41247;49.736;8.752;2022-10-16T23:24:20;7.30;;;1.67;;
55368;SDS011;41247;49.736;8.752;2022-10-16T23:28:01;5.72;;;1.50;;
55368;SDS011;41247;49.736;8.752;2022-10-16T23:31:41;6.70;;;1.60;;
55368;SDS011;41247;49.736;8.752;2022-10-16T23:35:22;4.57;;;1.50;;
55368;SDS011;41247;49.736;8.752;2022-10-16T23:39:03;6.03;;;1.73;;
55368;SDS011;41247;49.736;8.752;2022-10-16T23:42:43;3.13;;;1.48;;
55368;SDS011;41247;49.736;8.752;2022-10-16T23:46:24;9.98;;;1.55;;
55368;SDS011;41247;49.736;8.752;2022-10-16T23:50:04;2.22;;;1.30;;
55368;SDS011;41247;49.736;8.752;2022-10-16T23:53:46;5.97;;;1.40;;
55368;SDS011;41247;49.736;8.752;2022-10-16T23:57:27;5.25;;;1.80;;
